createdAt,value
2024-01-03T00:05:06.159Z,7.7
2024-01-03T00:15:06.203Z,7.7
2024-01-03T00:35:06.155Z,7.7
2024-01-03T00:45:06.127Z,7.7
2024-01-03T00:55:06.120Z,7.7
2024-01-03T01:05:06.164Z,7.7
2024-01-03T01:15:06.097Z,7.7
2024-01-03T01:25:06.121Z,7.6
2024-01-03T01:35:06.094Z,7.6
2024-01-03T01:45:06.259Z,7.6
2024-01-03T02:05:05.499Z,7.6
2024-01-03T02:15:05.844Z,7.6
2024-01-03T02:25:06.065Z,7.6
2024-01-03T02:35:06.016Z,7.6
2024-01-03T02:45:06.009Z,7.5
2024-01-03T02:55:05.998Z,7.5
2024-01-03T03:05:06.015Z,7.5
2024-01-03T03:15:06.046Z,7.5
2024-01-03T03:25:05.969Z,7.5
2024-01-03T03:35:05.964Z,7.5
2024-01-03T03:45:05.961Z,7.5
2024-01-03T04:05:05.963Z,7.5
2024-01-03T04:15:05.961Z,7.5
2024-01-03T04:25:05.902Z,7.5
2024-01-03T04:35:06.039Z,7.5
2024-01-03T04:45:05.892Z,7.5
2024-01-03T05:05:05.917Z,7.5
2024-01-03T05:15:05.874Z,7.5
2024-01-03T05:25:05.888Z,7.5
2024-01-03T05:35:05.872Z,7.5
2024-01-03T05:45:05.825Z,7.5
2024-01-03T05:55:05.816Z,7.5
2024-01-03T06:05:05.823Z,7.5
2024-01-03T06:15:05.821Z,7.4
2024-01-03T06:25:05.790Z,7.4
2024-01-03T06:35:05.722Z,7.4
2024-01-03T06:45:05.676Z,7.4
2024-01-03T06:55:05.786Z,7.4
2024-01-03T07:05:05.755Z,7.4
2024-01-03T07:15:05.805Z,7.4
2024-01-03T07:25:05.708Z,7.4
2024-01-03T07:35:05.717Z,7.4
2024-01-03T07:45:05.817Z,7.4
2024-01-03T07:55:05.718Z,7.4
2024-01-03T08:05:05.671Z,7.4
2024-01-03T08:15:05.678Z,7.4
2024-01-03T08:25:05.648Z,7.4
2024-01-03T08:35:05.711Z,7.4
2024-01-03T08:45:05.683Z,7.4
2024-01-03T08:55:05.629Z,7.4
2024-01-03T09:05:05.572Z,7.5
2024-01-03T09:15:05.653Z,7.5
2024-01-03T09:25:05.618Z,7.5
2024-01-03T09:35:05.587Z,7.5
2024-01-03T09:45:05.772Z,7.5
2024-01-03T09:55:05.570Z,7.5
2024-01-03T10:05:05.569Z,7.5
2024-01-03T10:15:05.575Z,7.6
2024-01-03T10:25:05.527Z,7.6
2024-01-03T10:35:05.573Z,7.6
2024-01-03T10:45:05.048Z,7.6
2024-01-03T10:55:05.441Z,7.6
2024-01-03T11:05:05.522Z,7.6
2024-01-03T11:15:05.341Z,7.7
2024-01-03T11:25:05.463Z,7.7
2024-01-03T11:35:05.530Z,7.7
2024-01-03T11:45:05.590Z,7.7
2024-01-03T11:55:05.433Z,7.7
2024-01-03T12:05:05.424Z,7.7
2024-01-03T12:15:05.491Z,7.7
2024-01-03T12:25:05.177Z,7.8
2024-01-03T12:35:05.395Z,7.8
2024-01-03T12:45:05.457Z,7.8
2024-01-03T12:55:05.402Z,7.8
2024-01-03T13:05:05.371Z,7.8
2024-01-03T13:15:05.577Z,7.8
2024-01-03T13:25:05.315Z,7.8
2024-01-03T13:35:05.366Z,7.8
2024-01-03T13:45:05.406Z,7.9
2024-01-03T14:05:05.300Z,7.8
2024-01-03T14:15:05.129Z,7.8
2024-01-03T14:25:05.190Z,7.8
2024-01-03T14:35:05.252Z,7.8
2024-01-03T14:45:05.071Z,7.8
2024-01-03T14:55:05.235Z,7.8
2024-01-03T15:05:05.276Z,7.8
2024-01-03T15:15:05.312Z,7.8
2024-01-03T15:35:05.239Z,7.7
2024-01-03T15:45:05.022Z,7.7
2024-01-03T15:55:05.200Z,7.7
2024-01-03T16:05:04.981Z,7.7
2024-01-03T16:15:05.222Z,7.7
2024-01-03T16:25:05.375Z,7.6
2024-01-03T16:35:05.216Z,7.6
2024-01-03T16:45:05.190Z,7.6
2024-01-03T16:55:05.127Z,7.6
2024-01-03T17:15:04.945Z,7.6
2024-01-03T17:25:05.075Z,7.5
2024-01-03T17:35:05.095Z,7.5
2024-01-03T17:45:04.932Z,7.5
2024-01-03T17:55:05.043Z,7.5
2024-01-03T18:05:05.187Z,7.5
2024-01-03T18:15:05.119Z,7.5
2024-01-03T18:25:05.000Z,7.5
2024-01-03T18:35:05.019Z,7.5
2024-01-03T18:45:05.048Z,7.4
2024-01-03T18:55:04.997Z,7.4
2024-01-03T19:05:04.887Z,7.4
2024-01-03T19:15:04.992Z,7.4
2024-01-03T19:25:04.982Z,7.4
2024-01-03T19:35:04.957Z,7.4
2024-01-03T19:45:04.985Z,7.4
2024-01-03T19:55:04.927Z,7.4
2024-01-03T20:05:04.907Z,7.4
2024-01-03T20:15:04.804Z,7.4
2024-01-03T20:35:04.911Z,7.4
2024-01-03T20:45:05.098Z,7.4
2024-01-03T20:55:04.881Z,7.4
2024-01-03T21:05:04.876Z,7.4
2024-01-03T21:15:04.742Z,7.4
2024-01-03T21:25:04.843Z,7.4
2024-01-03T21:35:04.807Z,7.4
2024-01-03T21:45:04.860Z,7.4
2024-01-03T21:55:04.822Z,7.3
2024-01-03T22:05:04.812Z,7.3
2024-01-03T22:15:04.864Z,7.3
2024-01-03T22:25:04.771Z,7.3
2024-01-03T22:35:04.821Z,7.3
2024-01-03T22:45:04.797Z,7.3
2024-01-03T22:55:04.801Z,7.3
2024-01-03T23:05:04.748Z,7.3
2024-01-03T23:15:04.888Z,7.3
2024-01-03T23:25:04.709Z,7.3
2024-01-03T23:35:04.511Z,7.2
2024-01-03T23:45:04.773Z,7.2
2024-01-03T23:55:04.699Z,7.2
